createdAt,value
2018-02-20T00:01:47.497Z,100696.55
2018-02-20T00:04:16.720Z,100692.73
2018-02-20T00:06:45.976Z,100694.19
2018-02-20T00:09:15.488Z,100702.11
2018-02-20T00:11:44.681Z,100700.86
2018-02-20T00:14:13.973Z,100700.89
2018-02-20T00:16:43.517Z,100695.34
2018-02-20T00:19:12.730Z,100695.45
2018-02-20T00:21:41.935Z,100699.38
2018-02-20T00:24:11.476Z,100695.20
2018-02-20T00:26:40.708Z,100693.54
2018-02-20T00:29:09.958Z,100693.61
2018-02-20T00:31:40.369Z,100688.35
2018-02-20T00:34:09.575Z,100686.62
2018-02-20T00:36:38.785Z,100686.70
2018-02-20T00:39:07.990Z,100683.70
2018-02-20T00:41:37.211Z,100679.34
2018-02-20T00:44:06.768Z,100679.31
2018-02-20T00:46:36.014Z,100681.58
2018-02-20T00:49:05.386Z,100682.84
2018-02-20T00:51:35.742Z,100680.38
2018-02-20T00:54:05.559Z,100674.84
2018-02-20T00:56:35.107Z,100676.16
2018-02-20T00:59:04.697Z,100674.08
2018-02-20T01:01:33.888Z,100668.03
2018-02-20T01:04:03.778Z,100671.81
2018-02-20T01:06:33.305Z,100672.74
2018-02-20T01:09:03.980Z,100671.98
2018-02-20T01:11:33.383Z,100678.52
2018-02-20T01:14:03.837Z,100679.42
2018-02-20T01:16:33.179Z,100676.89
2018-02-20T01:19:02.848Z,100674.27
2018-02-20T01:21:32.643Z,100674.20
2018-02-20T01:24:02.958Z,100672.91
2018-02-20T01:26:33.561Z,100669.48
2018-02-20T01:29:03.316Z,100667.23
2018-02-20T01:31:32.587Z,100663.87
2018-02-20T01:34:03.362Z,100663.07
2018-02-20T01:36:32.906Z,100660.88
2018-02-20T01:39:02.330Z,100664.37
2018-02-20T01:41:32.802Z,100662.20
2018-02-20T01:44:02.905Z,100658.85
2018-02-20T01:46:32.122Z,100667.92
2018-02-20T01:49:01.795Z,100663.70
2018-02-20T01:51:31.009Z,100662.86
2018-02-20T01:54:00.292Z,100659.38
2018-02-20T01:56:30.507Z,100664.16
2018-02-20T01:58:59.755Z,100663.33
2018-02-20T02:01:29.330Z,100660.33
2018-02-20T02:03:58.525Z,100660.33
2018-02-20T02:06:27.706Z,100669.89
2018-02-20T02:08:58.265Z,100666.91
2018-02-20T02:11:28.444Z,100670.36
2018-02-20T02:13:57.630Z,100671.65
2018-02-20T02:16:26.882Z,100673.38
2018-02-20T02:18:56.270Z,100679.39
2018-02-20T02:21:26.188Z,100669.00
2018-02-20T02:23:55.422Z,100677.14
2018-02-20T02:26:24.614Z,100668.84
2018-02-20T02:28:54.058Z,100670.08
2018-02-20T02:31:23.286Z,100676.89
2018-02-20T02:33:52.576Z,100676.55
2018-02-20T02:36:21.806Z,100679.55
2018-02-20T02:38:51.035Z,100674.33
2018-02-20T02:41:20.667Z,100673.10
2018-02-20T02:43:49.906Z,100673.97
2018-02-20T02:46:19.259Z,100673.56
2018-02-20T02:48:49.468Z,100670.55
2018-02-20T02:51:18.867Z,100677.81
2018-02-20T02:53:48.066Z,100674.30
2018-02-20T02:56:17.401Z,100677.76
2018-02-20T02:58:46.932Z,100677.73
2018-02-20T03:01:16.177Z,100676.80
2018-02-20T03:03:45.393Z,100666.43
2018-02-20T03:06:14.732Z,100672.11
2018-02-20T03:08:43.926Z,100670.19
2018-02-20T03:11:13.461Z,100667.56
2018-02-20T03:13:42.743Z,100664.57
2018-02-20T03:16:11.980Z,100672.74
2018-02-20T03:18:41.162Z,100664.53
2018-02-20T03:21:10.763Z,100668.86
2018-02-20T03:23:39.983Z,100664.14
2018-02-20T03:26:09.284Z,100662.91
2018-02-20T03:28:38.504Z,100663.41
2018-02-20T03:31:07.876Z,100663.41
2018-02-20T03:33:37.478Z,100658.98
2018-02-20T03:36:06.761Z,100657.36
2018-02-20T03:38:35.981Z,100662.05
2018-02-20T03:41:05.195Z,100662.88
2018-02-20T03:43:35.402Z,100666.40
2018-02-20T03:46:05.256Z,100661.68
2018-02-20T03:48:34.790Z,100662.91
2018-02-20T03:51:04.316Z,100656.92
2018-02-20T03:53:33.870Z,100656.00
2018-02-20T03:56:04.006Z,100652.17
2018-02-20T03:58:33.543Z,100655.63
2018-02-20T04:01:02.974Z,100650.78
2018-02-20T04:03:32.332Z,100657.76
2018-02-20T04:06:02.395Z,100656.86
2018-02-20T04:08:31.647Z,100655.13
2018-02-20T04:11:01.019Z,100646.89
2018-02-20T04:13:30.583Z,100649.88
2018-02-20T04:15:59.811Z,100643.41
2018-02-20T04:18:29.061Z,100649.20
2018-02-20T04:20:58.292Z,100648.38
2018-02-20T04:23:28.412Z,100647.91
2018-02-20T04:25:57.712Z,100648.31
2018-02-20T04:28:27.219Z,100652.12
2018-02-20T04:30:56.411Z,100657.78
2018-02-20T04:33:25.683Z,100653.42
2018-02-20T04:35:56.299Z,100662.09
2018-02-20T04:38:25.538Z,100660.30
2018-02-20T04:40:54.777Z,100659.36
2018-02-20T04:43:24.123Z,100658.50
2018-02-20T04:45:53.354Z,100662.42
2018-02-20T04:48:23.735Z,100660.80
2018-02-20T04:50:53.280Z,100660.41
2018-02-20T04:53:22.566Z,100657.31
2018-02-20T04:55:51.867Z,100658.53
2018-02-20T04:58:21.115Z,100654.53
2018-02-20T05:00:51.679Z,100649.31
2018-02-20T05:03:20.965Z,100644.56
2018-02-20T05:05:50.225Z,100650.28
2018-02-20T05:08:19.903Z,100645.42
2018-02-20T05:10:49.199Z,100647.55
2018-02-20T05:13:18.538Z,100651.76
2018-02-20T05:15:47.805Z,100656.59
2018-02-20T05:18:17.084Z,100659.54
2018-02-20T05:20:46.293Z,100659.58
2018-02-20T05:23:15.567Z,100657.34
2018-02-20T05:25:45.786Z,100669.48
2018-02-20T05:28:15.044Z,100663.86
2018-02-20T05:30:44.633Z,100663.39
2018-02-20T05:33:13.905Z,100675.17
2018-02-20T05:35:43.145Z,100673.30
2018-02-20T05:38:12.706Z,100667.13
2018-02-20T05:40:41.957Z,100665.33
2018-02-20T05:43:11.204Z,100669.45
2018-02-20T05:45:40.442Z,100670.32
2018-02-20T05:48:09.957Z,100669.85
2018-02-20T05:50:39.205Z,100675.98
2018-02-20T05:53:08.465Z,100670.44
2018-02-20T05:55:37.730Z,100676.38
2018-02-20T05:58:07.400Z,100678.30
2018-02-20T06:00:36.698Z,100683.45
2018-02-20T06:03:05.980Z,100683.45
2018-02-20T06:05:36.194Z,100689.90
2018-02-20T06:08:06.147Z,100682.19
2018-02-20T06:10:36.331Z,100687.34
2018-02-20T06:13:05.979Z,100686.05
2018-02-20T06:15:35.373Z,100688.72
2018-02-20T06:18:05.708Z,100692.60
2018-02-20T06:20:35.413Z,100691.30
2018-02-20T06:23:06.571Z,100689.19
2018-02-20T06:25:35.911Z,100684.75
2018-02-20T06:28:06.983Z,100684.34
2018-02-20T06:30:36.283Z,100693.90
2018-02-20T06:33:05.585Z,100684.78
2018-02-20T06:35:36.089Z,100686.12
2018-02-20T06:38:06.594Z,100688.20
2018-02-20T06:40:35.848Z,100694.77
2018-02-20T06:43:05.445Z,100694.33
2018-02-20T06:45:34.727Z,100701.28
2018-02-20T06:48:04.685Z,100702.12
2018-02-20T06:50:34.214Z,100699.88
2018-02-20T06:53:03.708Z,100698.11
2018-02-20T06:55:32.966Z,100699.09
2018-02-20T06:58:03.434Z,100690.33
2018-02-20T07:00:32.735Z,100699.98
2018-02-20T07:03:02.088Z,100700.53
2018-02-20T07:05:31.704Z,100700.89
2018-02-20T07:08:01.166Z,100699.09
2018-02-20T07:10:30.516Z,100703.48
2018-02-20T07:13:00.229Z,100702.52
2018-02-20T07:15:29.862Z,100706.88
2018-02-20T07:17:59.268Z,100708.17
2018-02-20T07:20:28.868Z,100705.17
2018-02-20T07:22:59.325Z,100710.77
2018-02-20T07:25:28.667Z,100712.31
2018-02-20T07:27:58.289Z,100714.47
2018-02-20T07:30:27.720Z,100711.98
2018-02-20T07:32:56.999Z,100712.85
2018-02-20T07:35:26.626Z,100715.02
2018-02-20T07:37:55.891Z,100722.25
2018-02-20T07:40:25.177Z,100716.20
2018-02-20T07:42:54.718Z,100719.58
2018-02-20T07:45:24.510Z,100706.65
2018-02-20T07:47:53.832Z,100711.91
2018-02-20T07:50:23.381Z,100713.60
2018-02-20T07:52:52.646Z,100717.78
2018-02-20T07:55:21.871Z,100712.55
2018-02-20T07:57:51.417Z,100729.09
2018-02-20T08:00:20.745Z,100720.38
2018-02-20T08:02:50.053Z,100717.70
2018-02-20T08:05:19.791Z,100716.30
2018-02-20T08:07:49.079Z,100712.78
2018-02-20T08:10:18.537Z,100711.69
2018-02-20T08:12:48.201Z,100716.76
2018-02-20T08:15:17.591Z,100714.41
2018-02-20T08:17:46.857Z,100708.82
2018-02-20T08:20:16.502Z,100708.85
2018-02-20T08:22:45.804Z,100705.66
2018-02-20T08:25:15.155Z,100709.64
2018-02-20T08:27:44.714Z,100699.06
2018-02-20T08:30:13.993Z,100694.64
2018-02-20T08:32:43.348Z,100691.58
2018-02-20T08:35:12.891Z,100695.95
2018-02-20T08:37:43.295Z,100688.75
2018-02-20T08:40:12.580Z,100685.39
2018-02-20T08:42:43.191Z,100686.52
2018-02-20T08:45:12.412Z,100682.91
2018-02-20T08:47:41.678Z,100689.11
2018-02-20T08:50:11.279Z,100682.02
2018-02-20T08:52:40.634Z,100682.88
2018-02-20T08:55:10.598Z,100686.55
2018-02-20T08:57:41.200Z,100679.36
2018-02-20T09:00:10.518Z,100676.17
2018-02-20T09:02:39.760Z,100670.44
2018-02-20T09:05:10.777Z,100675.34
2018-02-20T09:07:40.016Z,100674.65
2018-02-20T09:10:09.337Z,100672.45
2018-02-20T09:12:38.902Z,100663.38
2018-02-20T09:15:08.159Z,100661.92
2018-02-20T09:17:37.412Z,100658.94
2018-02-20T09:20:07.006Z,100661.14
2018-02-20T09:22:36.939Z,100656.67
2018-02-20T09:25:06.209Z,100654.67
2018-02-20T09:27:35.835Z,100648.81
2018-02-20T09:30:05.689Z,100648.69
2018-02-20T09:32:35.689Z,100651.45
2018-02-20T09:35:05.322Z,100650.27
2018-02-20T09:37:34.600Z,100653.61
2018-02-20T09:40:05.077Z,100659.70
2018-02-20T09:42:34.615Z,100658.57
2018-02-20T09:45:04.183Z,100656.11
2018-02-20T09:47:33.468Z,100650.55
2018-02-20T09:50:03.568Z,100651.88
2018-02-20T09:52:32.857Z,100651.29
2018-02-20T09:55:02.423Z,100651.64
2018-02-20T09:57:32.057Z,100655.36
2018-02-20T10:00:01.595Z,100656.78
2018-02-20T10:02:30.850Z,100656.28
2018-02-20T10:05:00.430Z,100659.72
2018-02-20T10:07:29.680Z,100665.14
2018-02-20T10:09:58.948Z,100665.40
2018-02-20T10:12:28.550Z,100676.21
2018-02-20T10:14:57.800Z,100672.45
2018-02-20T10:17:27.069Z,100669.77
2018-02-20T10:19:56.712Z,100670.81
2018-02-20T10:22:25.942Z,100666.61
2018-02-20T10:24:55.231Z,100666.24
2018-02-20T10:27:25.812Z,100669.77
2018-02-20T10:29:55.027Z,100673.13
2018-02-20T10:32:24.347Z,100662.91
2018-02-20T10:34:53.928Z,100667.61
2018-02-20T10:37:24.419Z,100665.28
2018-02-20T10:39:53.723Z,100664.29
2018-02-20T10:42:23.414Z,100670.38
2018-02-20T10:44:52.727Z,100663.60
2018-02-20T10:47:21.940Z,100663.87
2018-02-20T10:49:51.558Z,100662.54
2018-02-20T10:52:20.896Z,100663.63
2018-02-20T10:54:50.183Z,100661.06
2018-02-20T10:57:19.547Z,100661.34
2018-02-20T10:59:48.839Z,100665.73
2018-02-20T11:02:18.471Z,100657.82
2018-02-20T11:04:48.468Z,100665.80
2018-02-20T11:07:17.859Z,100659.46
2018-02-20T11:09:47.108Z,100651.41
2018-02-20T11:12:16.379Z,100646.37
2018-02-20T11:14:45.925Z,100645.44
2018-02-20T11:17:15.178Z,100644.75
2018-02-20T11:19:44.492Z,100642.46
2018-02-20T11:22:14.025Z,100640.20
2018-02-20T11:24:43.278Z,100643.53
2018-02-20T11:27:12.553Z,100644.72
2018-02-20T11:29:43.348Z,100642.98
2018-02-20T11:32:12.632Z,100636.94
2018-02-20T11:34:41.977Z,100642.45
2018-02-20T11:37:12.292Z,100643.25
2018-02-20T11:39:41.597Z,100645.16
2018-02-20T11:42:10.927Z,100646.40
2018-02-20T11:44:41.574Z,100642.55
2018-02-20T11:47:10.832Z,100648.63
2018-02-20T11:49:40.065Z,100650.58
2018-02-20T11:52:09.682Z,100650.73
2018-02-20T11:54:38.932Z,100646.72
2018-02-20T11:57:08.192Z,100649.59
2018-02-20T11:59:37.812Z,100647.74
2018-02-20T12:02:07.094Z,100652.60
2018-02-20T12:04:37.668Z,100657.09
2018-02-20T12:07:07.243Z,100652.38
2018-02-20T12:09:36.476Z,100659.37
2018-02-20T12:12:06.442Z,100661.84
2018-02-20T12:14:36.394Z,100656.74
2018-02-20T12:17:05.651Z,100657.91
2018-02-20T12:19:34.997Z,100654.45
2018-02-20T12:22:05.306Z,100650.98
2018-02-20T12:24:34.668Z,100647.16
2018-02-20T12:27:04.204Z,100642.02
2018-02-20T12:29:33.779Z,100644.49
2018-02-20T12:32:04.065Z,100642.61
2018-02-20T12:34:33.299Z,100634.59
2018-02-20T12:37:03.044Z,100628.17
2018-02-20T12:39:32.316Z,100633.48
2018-02-20T12:42:01.804Z,100632.22
2018-02-20T12:44:31.364Z,100631.14
2018-02-20T12:47:00.611Z,100628.22
2018-02-20T12:49:29.892Z,100622.63
2018-02-20T12:51:59.462Z,100620.02
2018-02-20T12:54:29.176Z,100626.94
2018-02-20T12:56:58.411Z,100627.34
2018-02-20T12:59:29.170Z,100626.75
2018-02-20T13:01:58.416Z,100623.42
2018-02-20T13:04:27.668Z,100617.84
2018-02-20T13:06:57.246Z,100621.24
2018-02-20T13:09:26.512Z,100616.45
2018-02-20T13:11:55.782Z,100616.69
2018-02-20T13:14:25.559Z,100618.59
2018-02-20T13:16:54.880Z,100620.29
2018-02-20T13:19:24.154Z,100615.58
2018-02-20T13:21:54.003Z,100617.67
2018-02-20T13:24:23.292Z,100617.13
2018-02-20T13:26:52.776Z,100607.59
2018-02-20T13:29:22.549Z,100612.97
2018-02-20T13:31:51.782Z,100614.73
2018-02-20T13:34:21.405Z,100611.92
2018-02-20T13:36:51.176Z,100615.68
2018-02-20T13:39:20.695Z,100614.28
2018-02-20T13:41:49.937Z,100620.00
2018-02-20T13:44:20.573Z,100621.28
2018-02-20T13:46:49.876Z,100618.88
2018-02-20T13:49:19.262Z,100619.91
2018-02-20T13:51:48.928Z,100618.82
2018-02-20T13:54:18.255Z,100615.56
2018-02-20T13:56:47.552Z,100612.69
2018-02-20T13:59:17.234Z,100622.03
2018-02-20T14:01:46.488Z,100620.45
2018-02-20T14:04:15.868Z,100621.34
2018-02-20T14:06:45.575Z,100625.45
2018-02-20T14:09:14.855Z,100626.56
2018-02-20T14:11:45.178Z,100619.94
2018-02-20T14:14:14.902Z,100624.13
2018-02-20T14:16:44.208Z,100628.75
2018-02-20T14:19:13.487Z,100625.69
2018-02-20T14:21:43.219Z,100621.25
2018-02-20T14:24:12.580Z,100626.06
2018-02-20T14:26:41.882Z,100618.53
2018-02-20T14:29:11.499Z,100620.94
2018-02-20T14:31:40.743Z,100621.53
2018-02-20T14:34:10.076Z,100624.28
2018-02-20T14:36:39.663Z,100619.12
2018-02-20T14:39:08.976Z,100622.89
2018-02-20T14:41:38.354Z,100617.65
2018-02-20T14:44:07.958Z,100626.53
2018-02-20T14:46:37.322Z,100621.36
2018-02-20T14:49:06.618Z,100624.44
2018-02-20T14:51:36.284Z,100626.17
2018-02-20T14:54:05.823Z,100622.83
2018-02-20T14:56:35.161Z,100621.73
2018-02-20T14:59:05.048Z,100618.33
2018-02-20T15:01:34.482Z,100614.08
2018-02-20T15:04:04.756Z,100616.41
2018-02-20T15:06:34.529Z,100613.00
2018-02-20T15:09:04.307Z,100620.25
2018-02-20T15:11:34.218Z,100621.03
2018-02-20T15:14:05.767Z,100621.17
2018-02-20T15:16:35.081Z,100618.14
2018-02-20T15:19:04.766Z,100624.31
2018-02-20T15:21:34.351Z,100622.12
2018-02-20T15:24:04.423Z,100622.50
2018-02-20T15:26:34.874Z,100621.68
2018-02-20T15:29:05.583Z,100627.66
2018-02-20T15:31:34.916Z,100632.20
2018-02-20T15:34:05.168Z,100635.75
2018-02-20T15:36:35.319Z,100634.45
2018-02-20T15:39:05.039Z,100640.17
2018-02-20T15:41:35.076Z,100642.52
2018-02-20T15:44:05.578Z,100632.63
2018-02-20T15:46:35.888Z,100639.66
2018-02-20T15:49:05.456Z,100640.26
2018-02-20T15:51:35.429Z,100638.88
2018-02-20T15:54:06.040Z,100645.75
2018-02-20T15:56:36.411Z,100641.03
2018-02-20T15:59:06.081Z,100648.38
2018-02-20T16:01:35.675Z,100650.17
2018-02-20T16:04:05.812Z,100649.88
2018-02-20T16:06:35.555Z,100647.92
2018-02-20T16:09:05.377Z,100650.17
2018-02-20T16:14:15.683Z,100648.01
2018-02-20T16:16:45.345Z,100649.36
2018-02-20T16:19:14.992Z,100656.03
2018-02-20T16:21:45.194Z,100655.16
2018-02-20T16:24:14.552Z,100658.73
2018-02-20T16:26:44.091Z,100657.10
2018-02-20T16:29:13.365Z,100660.59
2018-02-20T16:31:44.000Z,100661.34
2018-02-20T16:34:13.268Z,100663.97
2018-02-20T16:36:42.510Z,100666.27
2018-02-20T16:39:12.171Z,100668.55
2018-02-20T16:41:41.420Z,100671.82
2018-02-20T16:44:10.799Z,100671.58
2018-02-20T16:46:40.400Z,100671.20
2018-02-20T16:49:09.806Z,100674.13
2018-02-20T16:51:39.072Z,100673.45
2018-02-20T16:54:08.400Z,100680.02
2018-02-20T16:56:37.707Z,100683.37
2018-02-20T16:59:07.926Z,100683.44
2018-02-20T17:01:37.274Z,100683.94
2018-02-20T17:04:07.299Z,100685.84
2018-02-20T17:06:36.910Z,100693.06
2018-02-20T17:09:06.759Z,100697.16
2018-02-20T17:11:36.104Z,100694.67
2018-02-20T17:14:06.280Z,100697.34
2018-02-20T17:16:35.871Z,100699.99
2018-02-20T17:19:05.155Z,100704.84
2018-02-20T17:21:34.846Z,100705.88
2018-02-20T17:24:05.062Z,100702.09
2018-02-20T17:26:34.304Z,100709.11
2018-02-20T17:29:04.118Z,100715.23
2018-02-20T17:31:33.415Z,100713.12
2018-02-20T17:34:04.862Z,100717.16
2018-02-20T17:36:38.522Z,100720.58
2018-02-20T17:39:08.053Z,100726.70
2018-02-20T17:41:37.692Z,100729.38
2018-02-20T17:44:06.999Z,100724.70
2018-02-20T17:46:36.299Z,100729.42
2018-02-20T17:49:06.159Z,100744.12
2018-02-20T17:51:35.440Z,100743.27
2018-02-20T17:54:05.541Z,100742.39
2018-02-20T17:56:35.262Z,100736.77
2018-02-20T17:59:05.295Z,100739.84
2018-02-20T18:01:34.584Z,100745.17
2018-02-20T18:04:05.569Z,100750.63
2018-02-20T18:06:34.840Z,100749.73
2018-02-20T18:09:04.611Z,100759.32
2018-02-20T18:11:34.628Z,100761.94
2018-02-20T18:14:05.079Z,100763.28
2018-02-20T18:16:34.359Z,100761.98
2018-02-20T18:19:04.177Z,100770.13
2018-02-20T18:21:33.515Z,100766.92
2018-02-20T18:24:05.557Z,100770.02
2018-02-20T18:26:35.949Z,100772.61
2018-02-20T18:29:05.676Z,100772.56
2018-02-20T18:31:35.349Z,100778.69
2018-02-20T18:34:05.564Z,100780.48
2018-02-20T18:36:34.807Z,100788.73
2018-02-20T18:39:04.992Z,100786.74
2018-02-20T18:41:35.211Z,100784.08
2018-02-20T18:44:05.257Z,100789.94
2018-02-20T18:46:34.970Z,100788.05
2018-02-20T18:49:04.615Z,100793.20
2018-02-20T18:51:33.837Z,100791.90
2018-02-20T18:54:04.542Z,100797.33
2018-02-20T18:56:33.807Z,100798.34
2018-02-20T18:59:03.330Z,100804.38
2018-02-20T19:01:33.690Z,100806.92
2018-02-20T19:04:05.431Z,100804.42
2018-02-20T19:06:35.047Z,100799.11
2018-02-20T19:09:05.625Z,100800.57
2018-02-20T19:11:36.849Z,100800.08
2018-02-20T19:14:07.579Z,100803.56
2018-02-20T19:16:37.534Z,100802.03
2018-02-20T19:19:06.799Z,100800.45
2018-02-20T19:21:38.049Z,100808.27
2018-02-20T19:24:07.292Z,100810.81
2018-02-20T19:26:36.628Z,100817.77
2018-02-20T19:29:06.050Z,100819.05
2018-02-20T19:31:35.279Z,100814.88
2018-02-20T19:34:05.537Z,100822.14
2018-02-20T19:36:34.878Z,100819.45
2018-02-20T19:39:04.458Z,100810.76
2018-02-20T19:41:34.075Z,100816.45
2018-02-20T19:46:35.418Z,100824.22
2018-02-20T19:49:05.154Z,100824.53
2018-02-20T19:51:35.426Z,100831.72
2018-02-20T19:54:05.344Z,100828.61
2018-02-20T19:56:35.235Z,100837.23
2018-02-20T19:59:04.752Z,100836.07
2018-02-20T20:01:34.004Z,100827.30
2018-02-20T20:04:04.552Z,100829.81
2018-02-20T20:06:33.776Z,100831.22
2018-02-20T20:09:03.510Z,100823.70
2018-02-20T20:11:35.579Z,100830.06
2018-02-20T20:14:06.893Z,100827.83
2018-02-20T20:16:36.129Z,100831.25
2018-02-20T20:19:05.889Z,100839.22
2018-02-20T20:21:35.191Z,100846.11
2018-02-20T20:24:05.373Z,100847.03
2018-02-20T20:26:34.656Z,100855.27
2018-02-20T20:29:04.447Z,100854.77
2018-02-20T20:31:34.082Z,100853.95
2018-02-20T20:34:04.472Z,100859.94
2018-02-20T20:36:33.746Z,100849.86
2018-02-20T20:39:04.000Z,100856.02
2018-02-20T20:41:33.632Z,100860.89
2018-02-20T20:44:03.911Z,100863.02
2018-02-20T20:46:34.890Z,100867.77
2018-02-20T20:49:04.341Z,100867.78
2018-02-20T20:51:33.639Z,100867.24
2018-02-20T20:54:04.950Z,100863.34
2018-02-20T20:56:34.546Z,100869.22
2018-02-20T20:59:04.103Z,100866.81
2018-02-20T21:01:33.872Z,100871.70
2018-02-20T21:04:04.008Z,100862.19
2018-02-20T21:06:33.436Z,100867.45
2018-02-20T21:09:03.127Z,100866.14
2018-02-20T21:11:32.740Z,100869.70
2018-02-20T21:14:03.460Z,100868.31
2018-02-20T21:16:33.641Z,100866.97
2018-02-20T21:19:03.209Z,100871.22
2018-02-20T21:21:33.010Z,100869.33
2018-02-20T21:24:03.206Z,100869.03
2018-02-20T21:26:32.439Z,100869.33
2018-02-20T21:29:02.433Z,100865.62
2018-02-20T21:31:31.658Z,100873.08
2018-02-20T21:34:01.232Z,100878.53
2018-02-20T21:38:57.174Z,100881.37
2018-02-20T21:41:26.739Z,100879.97
2018-02-20T21:43:56.271Z,100882.58
2018-02-20T21:46:25.690Z,100877.95
2018-02-20T21:48:54.917Z,100883.58
2018-02-20T21:51:24.284Z,100885.80
2018-02-20T21:53:53.533Z,100887.14
2018-02-20T21:56:22.922Z,100890.70
2018-02-20T21:58:52.648Z,100895.81
2018-02-20T22:01:22.918Z,100895.39
2018-02-20T22:03:52.206Z,100904.84
2018-02-20T22:06:21.891Z,100897.63
2018-02-20T22:08:51.113Z,100892.31
2018-02-20T22:11:20.416Z,100890.57
2018-02-20T22:13:49.958Z,100891.09
2018-02-20T22:16:19.431Z,100891.66
2018-02-20T22:18:48.678Z,100894.22
2018-02-20T22:21:20.548Z,100898.16
2018-02-20T22:23:49.839Z,100894.25
2018-02-20T22:26:19.106Z,100900.09
2018-02-20T22:28:48.800Z,100907.23
2018-02-20T22:31:17.999Z,100906.44
2018-02-20T22:33:47.246Z,100902.54
2018-02-20T22:36:16.930Z,100907.70
2018-02-20T22:38:46.160Z,100911.21
2018-02-20T22:41:15.384Z,100914.28
2018-02-20T22:43:45.093Z,100919.36
2018-02-20T22:46:14.307Z,100917.66
2018-02-20T22:48:43.537Z,100921.17
2018-02-20T22:51:13.126Z,100919.48
2018-02-20T22:53:42.446Z,100922.78
2018-02-20T22:56:11.715Z,100924.48
2018-02-20T22:58:43.326Z,100919.32
2018-02-20T23:01:12.541Z,100916.33
2018-02-20T23:03:41.804Z,100921.05
2018-02-20T23:06:11.393Z,100921.48
2018-02-20T23:08:40.608Z,100921.52
2018-02-20T23:11:09.809Z,100934.09
2018-02-20T23:13:39.576Z,100931.69
2018-02-20T23:16:08.787Z,100930.78
2018-02-20T23:18:38.003Z,100933.27
2018-02-20T23:21:07.614Z,100935.42
2018-02-20T23:23:36.835Z,100937.12
2018-02-20T23:26:07.014Z,100935.70
2018-02-20T23:28:37.006Z,100943.70
2018-02-20T23:31:06.302Z,100943.14
2018-02-20T23:33:35.530Z,100939.80
2018-02-20T23:36:05.761Z,100945.94
2018-02-20T23:38:34.994Z,100941.06
2018-02-20T23:41:04.386Z,100949.21
2018-02-20T23:43:35.027Z,100942.87
2018-02-20T23:46:05.151Z,100956.48
2018-02-20T23:48:34.823Z,100948.14
2018-02-20T23:51:08.686Z,100952.88
2018-02-20T23:53:39.109Z,100956.26
2018-02-20T23:56:08.529Z,100958.43
2018-02-20T23:58:38.260Z,100969.80
